createdAt,value
2022-08-30T00:00:03.044Z,100717.66
2022-08-30T00:04:07.216Z,100714.13
2022-08-30T00:08:09.219Z,100709.75
2022-08-30T00:12:11.045Z,100708.97
2022-08-30T00:16:13.278Z,100705.56
2022-08-30T00:20:18.284Z,100707.38
2022-08-30T00:24:19.887Z,100714.31
2022-08-30T00:28:21.484Z,100710.09
2022-08-30T00:32:23.953Z,100718.00
2022-08-30T00:36:25.686Z,100708.44
2022-08-30T00:40:28.508Z,100717.97
2022-08-30T00:44:30.233Z,100716.28
2022-08-30T00:48:35.890Z,100705.88
2022-08-30T00:52:41.974Z,100714.56
2022-08-30T00:56:43.580Z,100711.13
2022-08-30T01:00:45.318Z,100728.50
2022-08-30T01:04:47.862Z,100725.84
2022-08-30T01:08:49.493Z,100719.78
2022-08-30T01:12:52.448Z,100722.38
2022-08-30T01:16:56.608Z,100724.97
2022-08-30T01:21:07.407Z,100727.56
2022-08-30T01:25:10.960Z,100718.06
2022-08-30T01:29:17.467Z,100725.88
2022-08-30T01:33:22.404Z,100733.72
2022-08-30T01:37:30.056Z,100725.91
2022-08-30T01:41:34.411Z,100733.75
2022-08-30T01:45:36.042Z,100730.28
2022-08-30T01:49:38.522Z,100724.19
2022-08-30T01:53:41.570Z,100725.03
2022-08-30T01:57:43.213Z,100728.50
2022-08-30T02:01:44.880Z,100725.00
2022-08-30T02:05:46.569Z,100731.09
2022-08-30T02:09:48.173Z,100738.03
2022-08-30T02:13:50.663Z,100734.56
2022-08-30T02:17:52.291Z,100731.97
2022-08-30T02:21:53.854Z,100732.75
2022-08-30T02:25:55.517Z,100720.59
2022-08-30T02:29:57.153Z,100717.97
2022-08-30T02:33:58.792Z,100710.19
2022-08-30T02:42:02.140Z,100720.56
2022-08-30T02:46:03.974Z,100711.06
2022-08-30T02:54:08.352Z,100705.78
2022-08-30T02:58:10.937Z,100707.50
2022-08-30T03:02:12.869Z,100706.56
2022-08-30T03:06:15.069Z,100705.66
2022-08-30T03:10:16.978Z,100703.94
2022-08-30T03:14:18.590Z,100709.13
2022-08-30T03:18:21.476Z,100705.75
2022-08-30T03:22:23.225Z,100701.41
2022-08-30T03:26:24.780Z,100705.69
2022-08-30T03:30:26.611Z,100701.41
2022-08-30T03:34:28.160Z,100700.56
2022-08-30T03:38:31.040Z,100697.03
2022-08-30T03:42:32.806Z,100697.84
2022-08-30T03:46:37.199Z,100697.72
2022-08-30T03:50:40.260Z,100708.06
2022-08-30T03:54:41.839Z,100710.66
2022-08-30T03:58:43.838Z,100706.38
2022-08-30T04:02:45.481Z,100695.16
2022-08-30T04:06:47.119Z,100704.69
2022-08-30T04:10:49.058Z,100695.16
2022-08-30T04:14:50.894Z,100699.50
2022-08-30T04:18:52.756Z,100712.47
2022-08-30T04:22:54.413Z,100711.56
2022-08-30T04:26:56.029Z,100714.94
2022-08-30T04:30:57.662Z,100719.13
2022-08-30T04:34:59.769Z,100719.13
2022-08-30T04:39:01.358Z,100728.66
2022-08-30T04:43:04.159Z,100725.16
2022-08-30T04:47:05.773Z,100731.16
2022-08-30T04:51:10.252Z,100725.13
2022-08-30T04:55:15.680Z,100732.75
2022-08-30T04:59:19.735Z,100733.59
2022-08-30T05:03:21.321Z,100738.78
2022-08-30T05:07:23.080Z,100737.97
2022-08-30T05:11:24.683Z,100744.91
2022-08-30T05:15:26.290Z,100741.47
2022-08-30T05:19:27.860Z,100753.47
2022-08-30T05:23:29.418Z,100746.44
2022-08-30T05:27:31.478Z,100761.16
2022-08-30T05:31:36.043Z,100760.28
2022-08-30T05:35:38.328Z,100775.09
2022-08-30T05:39:50.969Z,100777.66
2022-08-30T05:43:57.284Z,100776.78
2022-08-30T05:47:58.942Z,100771.50
2022-08-30T05:52:00.512Z,100774.00
2022-08-30T05:56:04.763Z,100767.16
2022-08-30T06:00:09.793Z,100768.88
2022-08-30T06:04:14.509Z,100755.88
2022-08-30T06:08:16.188Z,100757.63
2022-08-30T06:12:17.946Z,100755.06
2022-08-30T06:16:23.009Z,100756.97
2022-08-30T06:20:24.942Z,100764.91
2022-08-30T06:24:41.129Z,100764.97
2022-08-30T06:28:49.157Z,100757.25
2022-08-30T06:32:50.728Z,100751.25
2022-08-30T06:36:52.391Z,100758.31
2022-08-30T06:40:54.203Z,100757.56
2022-08-30T06:44:55.816Z,100763.66
2022-08-30T06:48:57.465Z,100757.66
2022-08-30T06:53:05.551Z,100761.19
2022-08-30T06:57:07.244Z,100763.78
2022-08-30T07:01:18.669Z,100768.16
2022-08-30T07:05:23.507Z,100769.06
2022-08-30T07:09:25.244Z,100773.44
2022-08-30T07:13:28.174Z,100777.81
2022-08-30T07:17:48.204Z,100789.94
2022-08-30T07:21:50.459Z,100782.16
2022-08-30T07:25:52.013Z,100777.06
2022-08-30T07:29:53.831Z,100781.44
2022-08-30T07:33:55.973Z,100784.91
2022-08-30T07:37:58.523Z,100785.78
2022-08-30T07:42:00.351Z,100782.34
2022-08-30T07:46:07.211Z,100779.75
2022-08-30T07:50:09.462Z,100776.28
2022-08-30T07:54:11.145Z,100778.00
2022-08-30T07:58:12.736Z,100779.72
2022-08-30T08:02:14.396Z,100769.31
2022-08-30T08:06:18.523Z,100774.47
2022-08-30T08:10:20.266Z,100768.41
2022-08-30T08:14:23.551Z,100769.19
2022-08-30T08:18:25.324Z,100768.19
2022-08-30T08:22:26.951Z,100767.19
2022-08-30T08:26:28.596Z,100760.06
2022-08-30T08:30:34.523Z,100771.25
2022-08-30T08:34:36.877Z,100764.13
2022-08-30T08:38:38.950Z,100768.28
2022-08-30T08:42:53.846Z,100753.22
2022-08-30T08:47:18.642Z,100743.47
2022-08-30T08:51:42.506Z,100744.25
2022-08-30T08:55:49.532Z,100747.75
2022-08-30T08:59:55.039Z,100744.25
2022-08-30T09:03:58.883Z,100739.69
2022-08-30T09:08:11.410Z,100745.69
2022-08-30T09:12:13.687Z,100736.03
2022-08-30T09:16:54.756Z,100737.69
2022-08-30T09:21:07.209Z,100736.47
2022-08-30T09:25:11.956Z,100733.28
2022-08-30T09:29:18.094Z,100728.41
2022-08-30T09:33:20.998Z,100720.00
2022-08-30T09:37:26.757Z,100723.09
2022-08-30T09:41:42.471Z,100715.88
2022-08-30T09:46:08.307Z,100705.50
2022-08-30T09:50:15.059Z,100702.47
2022-08-30T09:54:25.457Z,100710.09
2022-08-30T09:58:50.315Z,100692.34
2022-08-30T10:03:30.054Z,100695.88
2022-08-30T10:07:50.807Z,100687.03
2022-08-30T10:12:15.474Z,100676.22
2022-08-30T10:16:57.214Z,100670.78
2022-08-30T10:21:15.528Z,100668.91
2022-08-30T10:25:26.450Z,100659.25
2022-08-30T10:29:47.001Z,100661.47
2022-08-30T10:33:54.781Z,100655.25
2022-08-30T10:38:03.293Z,100657.94
2022-08-30T10:42:16.411Z,100658.28
2022-08-30T10:46:27.083Z,100642.13
2022-08-30T10:50:39.071Z,100652.75
2022-08-30T10:54:55.076Z,100646.72
2022-08-30T10:58:59.031Z,100644.63
2022-08-30T11:03:29.243Z,100640.53
2022-08-30T11:07:34.705Z,100635.19
2022-08-30T11:12:18.505Z,100616.56
2022-08-30T11:16:35.268Z,100624.72
2022-08-30T11:20:47.145Z,100626.69
2022-08-30T11:24:58.897Z,100615.16
2022-08-30T11:29:02.729Z,100615.41
2022-08-30T11:33:10.526Z,100617.25
2022-08-30T11:37:30.704Z,100605.84
2022-08-30T11:41:43.137Z,100605.47
2022-08-30T11:45:48.502Z,100610.88
2022-08-30T11:50:09.796Z,100592.16
2022-08-30T11:54:35.649Z,100599.88
2022-08-30T11:58:51.858Z,100584.75
2022-08-30T12:03:15.141Z,100594.16
2022-08-30T12:08:02.019Z,100577.72
2022-08-30T12:12:05.463Z,100578.69
2022-08-30T12:16:09.461Z,100581.16
2022-08-30T12:20:37.985Z,100581.56
2022-08-30T12:24:43.972Z,100574.84
2022-08-30T12:28:48.845Z,100564.34
2022-08-30T12:32:52.943Z,100559.25
2022-08-30T12:37:05.136Z,100565.09
2022-08-30T12:41:06.681Z,100551.81
2022-08-30T12:45:14.531Z,100548.59
2022-08-30T12:49:20.278Z,100538.31
2022-08-30T12:53:27.759Z,100533.44
2022-08-30T12:57:42.826Z,100530.22
2022-08-30T13:01:46.814Z,100527.81
2022-08-30T13:05:53.055Z,100522.56
2022-08-30T13:10:07.657Z,100521.72
2022-08-30T13:14:33.303Z,100516.56
2022-08-30T13:18:35.201Z,100512.91
2022-08-30T13:22:42.635Z,100506.13
2022-08-30T13:26:45.197Z,100495.94
2022-08-30T13:30:46.769Z,100490.09
2022-08-30T13:34:48.742Z,100476.25
2022-08-30T13:38:51.388Z,100484.59
2022-08-30T13:42:53.910Z,100480.13
2022-08-30T13:47:32.014Z,100487.84
2022-08-30T13:51:20.838Z,100476.84
2022-08-30T13:55:22.429Z,100470.41
2022-08-30T13:59:24.633Z,100465.22
2022-08-30T14:03:26.343Z,100462.28
2022-08-30T14:07:28.179Z,100453.53
2022-08-30T14:11:31.374Z,100452.19
2022-08-30T14:15:33.382Z,100450.44
2022-08-30T14:19:35.131Z,100444.44
2022-08-30T14:23:36.801Z,100434.78
2022-08-30T14:27:38.407Z,100435.47
2022-08-30T14:31:40.753Z,100422.31
2022-08-30T14:35:42.372Z,100413.88
2022-08-30T14:39:44.036Z,100415.66
2022-08-30T14:43:45.701Z,100411.28
2022-08-30T14:47:47.453Z,100411.25
2022-08-30T14:51:49.717Z,100409.13
2022-08-30T14:55:52.764Z,100412.56
2022-08-30T14:59:54.336Z,100395.34
2022-08-30T15:03:56.557Z,100395.63
2022-08-30T15:07:58.272Z,100391.03
2022-08-30T15:12:02.459Z,100392.28
2022-08-30T15:16:11.462Z,100395.13
2022-08-30T15:20:13.876Z,100391.03
2022-08-30T15:24:18.957Z,100384.38
2022-08-30T15:28:20.742Z,100391.66
2022-08-30T15:32:22.421Z,100378.75
2022-08-30T15:36:25.169Z,100388.50
2022-08-30T15:40:28.244Z,100385.13
2022-08-30T15:44:31.681Z,100394.91
2022-08-30T15:48:33.275Z,100388.97
2022-08-30T15:52:34.885Z,100378.38
2022-08-30T15:56:36.485Z,100377.06
2022-08-30T16:00:42.797Z,100370.53
2022-08-30T16:04:46.453Z,100369.34
2022-08-30T16:08:48.478Z,100368.22
2022-08-30T16:12:50.054Z,100365.03
2022-08-30T16:16:51.647Z,100358.78
2022-08-30T16:21:09.348Z,100367.06
2022-08-30T16:25:11.012Z,100353.44
2022-08-30T16:29:13.759Z,100351.41
2022-08-30T16:33:15.361Z,100366.41
2022-08-30T16:37:17.282Z,100359.19
2022-08-30T16:41:22.238Z,100364.50
2022-08-30T16:45:24.083Z,100365.06
2022-08-30T16:49:25.843Z,100357.91
2022-08-30T16:53:27.531Z,100363.41
2022-08-30T16:57:29.431Z,100358.13
2022-08-30T17:01:35.402Z,100368.97
2022-08-30T17:05:37.308Z,100361.84
2022-08-30T17:09:38.883Z,100364.69
2022-08-30T17:13:40.734Z,100375.13
2022-08-30T17:17:43.186Z,100374.19
2022-08-30T17:21:45.341Z,100373.06
2022-08-30T17:25:46.938Z,100375.34
2022-08-30T17:29:48.620Z,100385.59
2022-08-30T17:33:50.399Z,100388.81
2022-08-30T17:37:52.624Z,100397.28
2022-08-30T17:41:54.780Z,100408.31
2022-08-30T17:46:11.223Z,100408.19
2022-08-30T17:50:14.054Z,100408.69
2022-08-30T17:54:16.085Z,100406.50
2022-08-30T17:58:17.761Z,100410.72
2022-08-30T18:02:27.831Z,100413.16
2022-08-30T18:06:33.197Z,100420.69
2022-08-30T18:10:34.929Z,100430.84
2022-08-30T18:14:38.549Z,100428.56
2022-08-30T18:18:41.092Z,100440.19
2022-08-30T18:22:43.178Z,100441.34
2022-08-30T18:26:45.179Z,100438.31
2022-08-30T18:30:47.446Z,100436.88
2022-08-30T18:34:49.074Z,100435.38
2022-08-30T18:38:50.628Z,100438.22
2022-08-30T18:42:52.250Z,100442.78
2022-08-30T18:46:56.379Z,100448.91
2022-08-30T18:50:58.811Z,100454.22
2022-08-30T18:55:00.403Z,100450.81
2022-08-30T18:59:02.273Z,100454.41
2022-08-30T19:03:04.203Z,100458.06
2022-08-30T19:07:07.995Z,100467.00
2022-08-30T19:11:10.693Z,100460.25
2022-08-30T19:15:12.989Z,100456.09
2022-08-30T19:19:15.076Z,100458.09
2022-08-30T19:23:17.776Z,100476.69
2022-08-30T19:27:21.667Z,100477.78
2022-08-30T19:31:39.150Z,100478.91
2022-08-30T19:35:40.827Z,100479.28
2022-08-30T19:39:43.037Z,100477.78
2022-08-30T19:43:48.366Z,100478.97
2022-08-30T19:47:50.753Z,100484.41
2022-08-30T19:51:52.335Z,100489.00
2022-08-30T19:55:53.896Z,100489.16
2022-08-30T19:59:55.904Z,100490.94
2022-08-30T20:03:57.505Z,100495.41
2022-08-30T20:08:00.052Z,100489.25
2022-08-30T20:12:01.918Z,100492.78
2022-08-30T20:16:03.773Z,100499.72
2022-08-30T20:20:07.732Z,100509.28
2022-08-30T20:24:13.265Z,100501.44
2022-08-30T20:28:15.327Z,100499.75
2022-08-30T20:32:17.329Z,100500.69
2022-08-30T20:36:19.324Z,100507.94
2022-08-30T20:40:21.871Z,100507.34
2022-08-30T20:44:23.878Z,100514.50
2022-08-30T20:48:28.628Z,100500.72
2022-08-30T20:52:30.226Z,100501.63
2022-08-30T20:56:32.205Z,100503.41
2022-08-30T21:00:33.894Z,100500.72
2022-08-30T21:04:37.812Z,100507.72
2022-08-30T21:08:40.252Z,100503.41
2022-08-30T21:12:43.045Z,100508.66
2022-08-30T21:16:45.000Z,100510.50
2022-08-30T21:20:46.649Z,100505.28
2022-08-30T21:24:48.277Z,100508.97
2022-08-30T21:28:52.038Z,100512.50
2022-08-30T21:32:53.641Z,100507.25
2022-08-30T21:36:55.356Z,100508.22
2022-08-30T21:40:56.952Z,100517.84
2022-08-30T21:44:58.668Z,100518.78
2022-08-30T21:49:02.484Z,100525.88
2022-08-30T21:53:05.763Z,100523.34
2022-08-30T21:57:07.583Z,100536.50
2022-08-30T22:01:10.361Z,100543.53
2022-08-30T22:05:12.262Z,100534.78
2022-08-30T22:09:18.872Z,100541.75
2022-08-30T22:13:20.451Z,100542.59
2022-08-30T22:17:22.120Z,100544.31
2022-08-30T22:21:26.112Z,100554.00
2022-08-30T22:25:27.703Z,100556.63
2022-08-30T22:29:30.426Z,100560.09
2022-08-30T22:33:32.729Z,100562.66
2022-08-30T22:37:34.341Z,100561.84
2022-08-30T22:41:36.847Z,100561.00
2022-08-30T22:45:38.672Z,100561.91
2022-08-30T22:49:40.265Z,100560.19
2022-08-30T22:53:41.928Z,100560.25
2022-08-30T22:57:43.620Z,100569.91
2022-08-30T23:01:47.003Z,100565.50
2022-08-30T23:05:48.731Z,100571.63
2022-08-30T23:09:50.365Z,100581.25
2022-08-30T23:13:53.207Z,100584.00
2022-08-30T23:17:55.661Z,100584.06
2022-08-30T23:21:57.376Z,100580.81
2022-08-30T23:26:19.408Z,100579.03
2022-08-30T23:30:39.619Z,100596.53
2022-08-30T23:35:00.170Z,100596.53
2022-08-30T23:39:22.007Z,100599.22
2022-08-30T23:43:42.473Z,100593.13
2022-08-30T23:48:02.809Z,100592.31
2022-08-30T23:52:23.947Z,100592.34
2022-08-30T23:56:43.808Z,100605.50
